createdAt,value
2018-03-08T00:01:54.170Z,68.90
2018-03-08T00:04:23.379Z,68.47
2018-03-08T00:06:51.765Z,46.20
2018-03-08T00:09:20.022Z,66.43
2018-03-08T00:11:48.361Z,65.23
2018-03-08T00:14:16.671Z,67.87
2018-03-08T00:16:45.864Z,65.30
2018-03-08T00:19:14.252Z,68.40
2018-03-08T00:21:42.612Z,65.60
2018-03-08T00:24:10.909Z,49.30
2018-03-08T00:26:39.476Z,69.13
2018-03-08T00:29:07.797Z,71.47
2018-03-08T00:31:36.088Z,67.30
2018-03-08T00:34:05.356Z,70.27
2018-03-08T00:36:33.745Z,69.43
2018-03-08T00:39:02.440Z,46.57
2018-03-08T00:41:30.997Z,71.17
2018-03-08T00:43:59.276Z,62.63
2018-03-08T00:46:27.656Z,54.93
2018-03-08T00:48:55.964Z,64.77
2018-03-08T00:51:24.239Z,67.97
2018-03-08T00:53:52.545Z,63.13
2018-03-08T00:56:21.590Z,57.57
2018-03-08T00:58:50.068Z,70.90
2018-03-08T01:01:18.352Z,61.87
2018-03-08T01:03:46.736Z,63.00
2018-03-08T01:06:15.002Z,68.90
2018-03-08T01:08:43.472Z,64.60
2018-03-08T01:11:12.008Z,66.93
2018-03-08T01:13:41.264Z,73.53
2018-03-08T01:16:09.574Z,67.40
2018-03-08T01:18:37.832Z,66.97
2018-03-08T01:21:06.111Z,73.30
2018-03-08T01:23:34.410Z,70.97
2018-03-08T01:26:03.453Z,63.50
2018-03-08T01:28:32.034Z,67.60
2018-03-08T01:31:00.340Z,69.67
2018-03-08T01:33:28.709Z,72.77
2018-03-08T01:35:56.998Z,63.40
2018-03-08T01:38:25.310Z,68.20
2018-03-08T01:40:53.636Z,68.40
2018-03-08T01:43:22.032Z,63.63
2018-03-08T01:45:50.469Z,49.57
2018-03-08T01:48:19.522Z,69.13
2018-03-08T01:50:47.831Z,66.63
2018-03-08T01:53:16.972Z,69.60
2018-03-08T01:55:46.195Z,65.80
2018-03-08T01:58:14.893Z,70.63
2018-03-08T02:00:43.669Z,62.30
2018-03-08T02:03:12.339Z,69.97
2018-03-08T02:05:40.828Z,67.10
2018-03-08T02:08:09.112Z,69.10
2018-03-08T02:10:37.888Z,74.10
2018-03-08T02:13:06.360Z,69.53
2018-03-08T02:15:34.678Z,73.97
2018-03-08T02:18:02.941Z,74.50
2018-03-08T02:20:31.535Z,70.60
2018-03-08T02:22:59.829Z,63.17
2018-03-08T02:25:28.093Z,75.17
2018-03-08T02:27:56.653Z,76.63
2018-03-08T02:30:24.937Z,72.00
2018-03-08T02:32:53.932Z,77.93
2018-03-08T02:35:22.236Z,80.00
2018-03-08T02:37:51.130Z,78.70
2018-03-08T02:40:20.162Z,78.00
2018-03-08T02:42:48.481Z,75.80
2018-03-08T02:45:17.572Z,82.77
2018-03-08T02:47:45.840Z,79.80
2018-03-08T02:50:14.329Z,79.47
2018-03-08T02:52:42.609Z,74.03
2018-03-08T02:55:10.886Z,78.20
2018-03-08T02:57:39.190Z,72.33
2018-03-08T03:00:07.475Z,74.20
2018-03-08T03:02:36.293Z,60.30
2018-03-08T03:05:05.368Z,74.70
2018-03-08T03:07:33.650Z,68.70
2018-03-08T03:10:04.076Z,75.10
2018-03-08T03:12:34.058Z,75.63
2018-03-08T03:15:02.327Z,63.00
2018-03-08T03:17:30.610Z,63.20
2018-03-08T03:19:59.848Z,60.27
2018-03-08T03:22:29.906Z,62.97
2018-03-08T03:24:59.323Z,73.83
2018-03-08T03:27:27.608Z,69.57
2018-03-08T03:29:56.076Z,73.67
2018-03-08T03:32:25.812Z,66.77
2018-03-08T03:34:54.092Z,75.50
2018-03-08T03:37:22.555Z,71.60
2018-03-08T03:39:50.833Z,72.90
2018-03-08T03:42:19.632Z,82.00
2018-03-08T03:44:48.300Z,77.43
2018-03-08T03:47:16.691Z,85.07
2018-03-08T03:49:44.953Z,80.50
2018-03-08T03:52:13.561Z,85.23
2018-03-08T03:54:41.850Z,73.60
2018-03-08T03:57:11.146Z,78.87
2018-03-08T03:59:39.692Z,84.53
2018-03-08T04:02:08.816Z,83.87
2018-03-08T04:04:37.091Z,89.03
2018-03-08T04:07:05.716Z,88.30
2018-03-08T04:09:34.021Z,88.07
2018-03-08T04:12:03.259Z,90.37
2018-03-08T04:14:31.953Z,99.10
2018-03-08T04:17:00.237Z,91.37
2018-03-08T04:19:29.028Z,91.77
2018-03-08T04:21:57.373Z,96.80
2018-03-08T04:24:26.103Z,94.47
2018-03-08T04:26:54.381Z,93.13
2018-03-08T04:29:22.899Z,98.50
2018-03-08T04:31:51.936Z,98.00
2018-03-08T04:34:20.249Z,85.67
2018-03-08T04:36:48.812Z,93.43
2018-03-08T04:39:17.086Z,99.57
2018-03-08T04:41:45.976Z,88.10
2018-03-08T04:44:14.310Z,86.67
2018-03-08T04:46:43.451Z,95.20
2018-03-08T04:49:11.717Z,94.50
2018-03-08T04:51:40.014Z,87.83
2018-03-08T04:54:08.488Z,95.50
2018-03-08T04:56:36.798Z,86.77
2018-03-08T04:59:05.888Z,99.50
2018-03-08T05:01:34.180Z,91.40
2018-03-08T05:04:02.444Z,89.83
2018-03-08T05:06:30.796Z,93.50
2018-03-08T05:08:59.276Z,99.10
2018-03-08T05:11:27.564Z,102.83
2018-03-08T05:13:55.832Z,79.67
2018-03-08T05:16:24.196Z,83.40
2018-03-08T05:18:52.501Z,109.10
2018-03-08T05:21:21.176Z,75.60
2018-03-08T05:23:49.489Z,90.33
2018-03-08T05:26:17.785Z,100.97
2018-03-08T05:28:46.840Z,95.00
2018-03-08T05:31:15.831Z,97.83
2018-03-08T05:33:44.103Z,96.87
2018-03-08T05:36:12.422Z,102.20
2018-03-08T05:38:42.328Z,83.37
2018-03-08T05:41:11.796Z,91.63
2018-03-08T05:43:41.160Z,94.33
2018-03-08T05:46:10.194Z,91.10
2018-03-08T05:48:38.821Z,119.93
2018-03-08T05:51:07.084Z,100.83
2018-03-08T05:53:35.425Z,90.70
2018-03-08T05:56:03.764Z,89.50
2018-03-08T05:58:32.823Z,95.57
2018-03-08T06:01:01.101Z,94.77
2018-03-08T06:03:30.155Z,94.70
2018-03-08T06:05:58.429Z,102.60
2018-03-08T06:08:26.688Z,83.33
2018-03-08T06:10:56.370Z,93.33
2018-03-08T06:13:25.272Z,87.90
2018-03-08T06:15:53.549Z,94.70
2018-03-08T06:18:21.852Z,82.53
2018-03-08T06:20:50.908Z,86.07
2018-03-08T06:23:19.184Z,88.37
2018-03-08T06:25:47.567Z,92.20
2018-03-08T06:28:16.435Z,93.57
2018-03-08T06:30:44.700Z,81.93
2018-03-08T06:33:13.613Z,91.73
2018-03-08T06:35:41.880Z,84.13
2018-03-08T06:38:10.974Z,92.57
2018-03-08T06:40:39.355Z,89.57
2018-03-08T06:43:07.728Z,68.03
2018-03-08T06:45:36.021Z,78.83
2018-03-08T06:48:04.396Z,92.20
2018-03-08T06:50:32.979Z,90.87
2018-03-08T06:53:01.267Z,89.50
2018-03-08T06:55:29.541Z,90.33
2018-03-08T06:57:58.029Z,84.00
2018-03-08T07:00:26.312Z,76.30
2018-03-08T07:02:55.396Z,88.57
2018-03-08T07:05:23.788Z,98.20
2018-03-08T07:07:52.084Z,92.87
2018-03-08T07:10:21.283Z,95.87
2018-03-08T07:12:49.957Z,97.70
2018-03-08T07:15:18.258Z,103.57
2018-03-08T07:17:46.618Z,98.30
2018-03-08T07:20:14.889Z,109.97
2018-03-08T07:22:43.167Z,103.53
2018-03-08T07:25:11.460Z,98.03
2018-03-08T07:27:40.683Z,96.80
2018-03-08T07:30:09.731Z,100.27
2018-03-08T07:32:38.029Z,101.53
2018-03-08T07:35:07.017Z,109.67
2018-03-08T07:37:35.331Z,101.47
2018-03-08T07:40:04.368Z,101.83
2018-03-08T07:42:32.816Z,105.53
2018-03-08T07:45:01.991Z,112.77
2018-03-08T07:47:30.236Z,110.83
2018-03-08T07:49:59.441Z,103.13
2018-03-08T07:52:27.744Z,97.23
2018-03-08T07:54:57.432Z,92.23
2018-03-08T07:57:25.701Z,95.17
2018-03-08T07:59:54.009Z,89.07
2018-03-08T08:02:22.302Z,85.10
2018-03-08T08:05:08.420Z,75.00
2018-03-08T08:07:54.425Z,69.30
2018-03-08T08:10:23.032Z,64.27
2018-03-08T08:12:51.309Z,62.77
2018-03-08T08:15:19.565Z,59.77
2018-03-08T08:17:48.775Z,59.27
2018-03-08T08:20:17.220Z,56.63
2018-03-08T08:22:46.264Z,48.20
2018-03-08T08:25:14.574Z,46.70
2018-03-08T08:27:42.972Z,50.53
2018-03-08T08:30:12.326Z,53.67
2018-03-08T08:32:40.797Z,51.50
2018-03-08T08:35:09.068Z,47.40
2018-03-08T08:37:37.352Z,48.27
2018-03-08T08:40:05.747Z,46.50
2018-03-08T08:42:34.353Z,50.47
2018-03-08T08:45:03.024Z,51.97
2018-03-08T08:47:31.521Z,48.90
2018-03-08T08:50:00.041Z,45.87
2018-03-08T08:52:29.088Z,48.57
2018-03-08T08:54:57.549Z,47.80
2018-03-08T08:57:27.388Z,44.33
2018-03-08T08:59:55.688Z,43.80
2018-03-08T09:02:24.315Z,44.50
2018-03-08T09:04:53.973Z,43.37
2018-03-08T09:07:23.080Z,42.17
2018-03-08T09:09:51.864Z,42.53
2018-03-08T09:12:20.855Z,41.00
2018-03-08T09:14:50.676Z,37.03
2018-03-08T09:17:19.328Z,43.53
2018-03-08T09:19:48.545Z,42.87
2018-03-08T09:22:16.840Z,44.97
2018-03-08T09:24:45.149Z,45.47
2018-03-08T09:27:14.176Z,45.17
2018-03-08T09:29:42.511Z,51.60
2018-03-08T09:32:11.536Z,49.93
2018-03-08T09:34:40.453Z,47.77
2018-03-08T09:37:08.744Z,49.93
2018-03-08T09:39:37.336Z,45.97
2018-03-08T09:42:05.605Z,45.00
2018-03-08T09:44:33.941Z,39.90
2018-03-08T09:47:02.650Z,45.17
2018-03-08T09:49:30.916Z,44.50
2018-03-08T09:51:59.504Z,40.50
2018-03-08T09:54:28.411Z,51.77
2018-03-08T09:56:56.789Z,53.70
2018-03-08T09:59:25.290Z,49.67
2018-03-08T10:01:53.652Z,54.93
2018-03-08T10:04:21.919Z,62.67
2018-03-08T10:06:50.293Z,64.27
2018-03-08T10:09:19.028Z,64.57
2018-03-08T10:11:47.371Z,66.10
2018-03-08T10:14:15.736Z,67.33
2018-03-08T10:16:44.330Z,58.53
2018-03-08T10:19:12.598Z,64.57
2018-03-08T10:21:44.517Z,66.90
2018-03-08T10:24:09.200Z,65.60
2018-03-08T10:26:37.464Z,58.00
2018-03-08T10:29:06.369Z,59.53
2018-03-08T10:31:35.012Z,63.73
2018-03-08T10:34:04.136Z,59.73
2018-03-08T10:36:32.829Z,55.93
2018-03-08T10:39:01.180Z,53.97
2018-03-08T10:43:58.872Z,50.97
2018-03-08T10:46:27.157Z,50.20
2018-03-08T10:51:23.896Z,48.10
2018-03-08T10:53:52.162Z,51.53
2018-03-08T10:56:21.027Z,49.33
2018-03-08T10:58:50.076Z,50.87
2018-03-08T11:01:23.816Z,52.00
2018-03-08T11:03:54.972Z,47.10
2018-03-08T11:06:28.996Z,50.53
2018-03-08T11:08:58.060Z,49.00
2018-03-08T11:11:26.319Z,55.63
2018-03-08T11:13:54.587Z,54.67
2018-03-08T11:16:23.289Z,48.17
2018-03-08T11:18:52.148Z,49.87
2018-03-08T11:21:20.548Z,50.93
2018-03-08T11:23:48.916Z,48.00
2018-03-08T11:26:17.195Z,46.73
2018-03-08T11:28:45.672Z,44.63
2018-03-08T11:31:13.965Z,44.80
2018-03-08T11:33:42.966Z,44.07
2018-03-08T11:36:11.257Z,45.10
2018-03-08T11:38:39.699Z,39.03
2018-03-08T11:41:07.977Z,34.90
2018-03-08T11:43:36.277Z,35.23
2018-03-08T11:46:04.567Z,33.27
2018-03-08T11:48:33.842Z,31.07
2018-03-08T11:51:01.527Z,28.37
2018-03-08T11:53:29.794Z,31.67
2018-03-08T11:55:58.080Z,28.53
2018-03-08T11:58:26.402Z,30.80
2018-03-08T12:00:56.186Z,29.00
2018-03-08T12:03:24.779Z,31.43
2018-03-08T12:05:53.254Z,29.00
2018-03-08T12:08:21.524Z,27.30
2018-03-08T12:10:50.416Z,26.07
2018-03-08T12:13:19.548Z,25.00
2018-03-08T12:15:48.722Z,27.23
2018-03-08T12:18:16.988Z,29.60
2018-03-08T12:20:45.407Z,23.93
2018-03-08T12:23:14.437Z,23.93
2018-03-08T12:25:42.725Z,25.03
2018-03-08T12:28:11.238Z,24.87
2018-03-08T12:30:39.507Z,25.77
2018-03-08T12:33:08.216Z,25.90
2018-03-08T12:35:37.080Z,27.53
2018-03-08T12:38:05.970Z,23.90
2018-03-08T12:40:34.968Z,25.53
2018-03-08T12:43:03.818Z,23.47
2018-03-08T12:45:32.084Z,22.30
2018-03-08T12:48:00.367Z,23.83
2018-03-08T12:50:28.777Z,22.30
2018-03-08T12:52:57.347Z,22.40
2018-03-08T12:55:26.242Z,19.90
2018-03-08T12:57:55.548Z,16.87
2018-03-08T13:00:24.749Z,14.97
2018-03-08T13:02:53.055Z,15.40
2018-03-08T13:05:21.716Z,15.93
2018-03-08T13:07:50.296Z,13.33
2018-03-08T13:10:18.814Z,14.50
2018-03-08T13:12:47.232Z,11.97
2018-03-08T13:15:15.524Z,13.87
2018-03-08T13:17:43.792Z,14.97
2018-03-08T13:20:12.096Z,13.13
2018-03-08T13:22:40.490Z,15.30
2018-03-08T13:25:08.765Z,14.90
2018-03-08T13:27:37.161Z,13.87
2018-03-08T13:30:05.451Z,13.30
2018-03-08T13:32:33.809Z,13.10
2018-03-08T13:35:02.138Z,11.27
2018-03-08T13:37:31.651Z,11.90
2018-03-08T13:39:59.928Z,13.30
2018-03-08T13:42:28.440Z,12.70
2018-03-08T13:44:56.699Z,11.10
2018-03-08T13:47:24.987Z,11.30
2018-03-08T13:49:53.283Z,12.30
2018-03-08T13:52:21.656Z,12.80
2018-03-08T13:54:49.928Z,13.40
2018-03-08T13:57:18.216Z,10.03
2018-03-08T13:59:46.580Z,13.00
2018-03-08T14:02:14.926Z,10.10
2018-03-08T14:04:43.172Z,9.03
2018-03-08T14:07:11.454Z,9.60
2018-03-08T14:09:40.271Z,9.70
2018-03-08T14:12:08.949Z,9.60
2018-03-08T14:14:38.007Z,10.13
2018-03-08T14:17:06.775Z,9.47
2018-03-08T14:19:35.199Z,9.70
2018-03-08T14:22:03.487Z,8.63
2018-03-08T14:24:31.783Z,7.60
2018-03-08T14:27:00.886Z,7.03
2018-03-08T14:29:30.028Z,8.93
2018-03-08T14:31:58.345Z,8.20
2018-03-08T14:34:27.100Z,7.77
2018-03-08T14:36:56.076Z,7.63
2018-03-08T14:39:24.393Z,8.17
2018-03-08T14:41:52.684Z,7.73
2018-03-08T14:44:21.734Z,7.47
2018-03-08T14:46:50.229Z,9.20
2018-03-08T14:49:18.514Z,7.77
2018-03-08T14:51:46.801Z,9.40
2018-03-08T14:54:15.093Z,9.20
2018-03-08T14:56:44.128Z,6.97
2018-03-08T14:59:12.410Z,8.27
2018-03-08T15:01:40.729Z,8.13
2018-03-08T15:04:08.997Z,8.23
2018-03-08T15:06:37.269Z,9.53
2018-03-08T15:09:06.000Z,8.13
2018-03-08T15:11:34.254Z,8.20
2018-03-08T15:14:02.521Z,10.90
2018-03-08T15:16:30.838Z,9.33
2018-03-08T15:18:59.136Z,7.83
2018-03-08T15:21:27.441Z,8.20
2018-03-08T15:23:55.813Z,7.30
2018-03-08T15:26:24.108Z,9.00
2018-03-08T15:28:52.495Z,7.83
2018-03-08T15:31:20.838Z,8.20
2018-03-08T15:33:49.199Z,6.47
2018-03-08T15:36:17.474Z,6.93
2018-03-08T15:38:45.785Z,6.90
2018-03-08T15:41:14.939Z,6.80
2018-03-08T15:43:43.971Z,7.30
2018-03-08T15:46:12.613Z,6.53
2018-03-08T15:48:42.425Z,6.50
2018-03-08T15:51:11.453Z,6.47
2018-03-08T15:53:39.728Z,6.20
2018-03-08T15:56:08.964Z,4.97
2018-03-08T15:58:37.229Z,4.77
2018-03-08T16:01:06.855Z,4.97
2018-03-08T16:03:35.160Z,5.00
2018-03-08T16:06:04.198Z,5.13
2018-03-08T16:08:53.972Z,4.10
2018-03-08T16:11:22.258Z,4.90
2018-03-08T16:13:50.530Z,4.73
2018-03-08T16:16:18.911Z,4.57
2018-03-08T16:18:47.731Z,5.00
2018-03-08T16:21:16.415Z,5.23
2018-03-08T16:23:44.945Z,4.90
2018-03-08T16:26:14.012Z,4.77
2018-03-08T16:28:42.271Z,5.13
2018-03-08T16:31:10.641Z,4.53
2018-03-08T16:33:39.024Z,5.40
2018-03-08T16:36:07.291Z,5.03
2018-03-08T16:38:35.589Z,4.53
2018-03-08T16:41:03.873Z,4.70
2018-03-08T16:43:32.684Z,4.80
2018-03-08T16:46:00.951Z,5.17
2018-03-08T16:48:29.497Z,5.27
2018-03-08T16:50:57.768Z,4.77
2018-03-08T16:53:27.272Z,4.70
2018-03-08T16:55:56.109Z,5.70
2018-03-08T16:58:24.389Z,5.30
2018-03-08T17:00:53.477Z,5.77
2018-03-08T17:03:21.796Z,5.93
2018-03-08T17:05:50.843Z,5.97
2018-03-08T17:08:19.500Z,6.00
2018-03-08T17:10:47.766Z,6.40
2018-03-08T17:13:16.022Z,6.67
2018-03-08T17:15:45.077Z,5.63
2018-03-08T17:18:13.374Z,7.13
2018-03-08T17:20:42.400Z,7.30
2018-03-08T17:23:10.783Z,8.37
2018-03-08T17:25:39.071Z,7.73
2018-03-08T17:28:07.352Z,8.03
2018-03-08T17:30:35.656Z,8.50
2018-03-08T17:33:03.920Z,8.10
2018-03-08T17:35:32.194Z,9.10
2018-03-08T17:38:00.531Z,10.50
2018-03-08T17:40:29.583Z,7.87
2018-03-08T17:42:57.846Z,8.73
2018-03-08T17:45:27.756Z,8.23
2018-03-08T17:47:56.148Z,8.97
2018-03-08T17:50:24.524Z,9.50
2018-03-08T17:52:52.808Z,9.97
2018-03-08T17:55:21.288Z,9.77
2018-03-08T17:57:49.585Z,10.87
2018-03-08T18:00:17.863Z,9.90
2018-03-08T18:02:46.281Z,10.90
2018-03-08T18:05:15.326Z,12.70
2018-03-08T18:07:44.520Z,11.57
2018-03-08T18:10:13.108Z,10.83
2018-03-08T18:12:41.399Z,12.10
2018-03-08T18:15:09.669Z,10.90
2018-03-08T18:17:37.960Z,11.60
2018-03-08T18:20:06.277Z,12.40
2018-03-08T18:22:34.532Z,13.97
2018-03-08T18:25:03.073Z,11.70
2018-03-08T18:27:31.353Z,11.53
2018-03-08T18:29:59.648Z,10.10
2018-03-08T18:32:27.943Z,11.20
2018-03-08T18:34:56.236Z,10.80
2018-03-08T18:37:25.277Z,11.23
2018-03-08T18:39:53.587Z,10.57
2018-03-08T18:42:21.874Z,10.43
2018-03-08T18:44:50.924Z,8.73
2018-03-08T18:47:19.327Z,10.60
2018-03-08T18:49:47.600Z,11.50
2018-03-08T18:52:16.052Z,12.13
2018-03-08T18:54:44.337Z,11.17
2018-03-08T18:57:13.128Z,12.63
2018-03-08T18:59:41.630Z,12.87
2018-03-08T19:02:12.922Z,14.77
2018-03-08T19:04:42.167Z,11.70
2018-03-08T19:07:11.301Z,12.83
2018-03-08T19:09:39.592Z,16.03
2018-03-08T19:12:08.281Z,16.93
2018-03-08T19:14:37.345Z,19.47
2018-03-08T19:17:05.610Z,18.10
2018-03-08T19:19:34.006Z,19.07
2018-03-08T19:22:02.498Z,18.80
2018-03-08T19:24:31.516Z,18.63
2018-03-08T19:27:00.771Z,20.60
2018-03-08T19:29:29.282Z,22.40
2018-03-08T19:31:58.132Z,22.50
2018-03-08T19:34:26.425Z,23.00
2018-03-08T19:36:54.699Z,22.53
2018-03-08T19:39:22.992Z,21.70
2018-03-08T19:41:51.461Z,22.10
2018-03-08T19:44:19.856Z,22.63
2018-03-08T19:46:48.609Z,21.10
2018-03-08T19:49:18.060Z,18.97
2018-03-08T19:51:46.329Z,19.07
2018-03-08T19:54:14.597Z,18.10
2018-03-08T19:56:42.881Z,20.00
2018-03-08T19:59:11.170Z,19.70
2018-03-08T20:01:40.967Z,21.23
2018-03-08T20:04:09.512Z,20.43
2018-03-08T20:06:37.817Z,18.20
2018-03-08T20:09:06.226Z,20.27
2018-03-08T20:11:34.501Z,20.20
2018-03-08T20:14:02.859Z,21.50
2018-03-08T20:16:31.153Z,21.30
2018-03-08T20:19:00.031Z,23.33
2018-03-08T20:21:28.297Z,21.67
2018-03-08T20:23:56.629Z,23.70
2018-03-08T20:26:25.779Z,22.67
2018-03-08T20:28:54.071Z,23.17
2018-03-08T20:31:22.741Z,22.73
2018-03-08T20:33:51.021Z,22.70
2018-03-08T20:36:20.460Z,22.07
2018-03-08T20:38:48.807Z,23.00
2018-03-08T20:41:17.076Z,23.00
2018-03-08T20:43:46.021Z,20.80
2018-03-08T20:46:15.092Z,21.37
2018-03-08T20:48:43.357Z,23.97
2018-03-08T20:51:11.630Z,22.03
2018-03-08T20:53:39.937Z,19.80
2018-03-08T20:56:08.419Z,19.97
2018-03-08T20:58:37.449Z,21.00
2018-03-08T21:01:06.526Z,20.30
2018-03-08T21:03:35.606Z,17.77
2018-03-08T21:06:03.892Z,18.77
2018-03-08T21:08:32.988Z,19.17
2018-03-08T21:11:01.889Z,21.20
2018-03-08T21:13:30.921Z,20.97
2018-03-08T21:15:59.229Z,19.13
2018-03-08T21:18:28.309Z,17.60
2018-03-08T21:20:56.595Z,18.13
2018-03-08T21:23:24.889Z,14.67
2018-03-08T21:25:53.147Z,12.83
2018-03-08T21:28:21.942Z,12.30
2018-03-08T21:30:50.208Z,11.30
2018-03-08T21:33:19.552Z,9.63
2018-03-08T21:35:48.210Z,9.87
2018-03-08T21:38:16.497Z,8.90
2018-03-08T21:40:44.888Z,8.90
2018-03-08T21:43:13.235Z,6.70
2018-03-08T21:45:41.523Z,7.50
2018-03-08T21:48:09.829Z,7.00
2018-03-08T21:50:38.098Z,6.23
2018-03-08T21:53:06.512Z,5.70
2018-03-08T21:55:35.851Z,6.13
2018-03-08T21:58:04.170Z,5.30
2018-03-08T22:00:32.530Z,5.23
2018-03-08T22:03:00.801Z,5.47
2018-03-08T22:05:29.073Z,5.13
2018-03-08T22:07:57.381Z,4.93
2018-03-08T22:10:25.636Z,4.77
2018-03-08T22:12:53.921Z,5.40
2018-03-08T22:15:22.228Z,5.43
2018-03-08T22:17:51.245Z,4.20
2018-03-08T22:20:20.336Z,5.97
2018-03-08T22:22:48.648Z,5.73
2018-03-08T22:25:17.072Z,5.73
2018-03-08T22:27:45.344Z,7.03
2018-03-08T22:30:13.680Z,6.83
2018-03-08T22:32:41.968Z,7.57
2018-03-08T22:35:10.232Z,8.03
2018-03-08T22:37:39.150Z,7.37
2018-03-08T22:40:07.417Z,7.57
2018-03-08T22:42:35.676Z,6.87
2018-03-08T22:45:04.088Z,7.70
2018-03-08T22:47:32.448Z,8.47
2018-03-08T22:50:01.370Z,7.67
2018-03-08T22:52:29.942Z,8.33
2018-03-08T22:54:58.222Z,8.07
2018-03-08T22:57:26.502Z,8.20
2018-03-08T22:59:54.781Z,8.17
2018-03-08T23:02:28.632Z,8.77
2018-03-08T23:04:57.249Z,8.47
2018-03-08T23:07:25.509Z,9.73
2018-03-08T23:09:55.159Z,9.03
2018-03-08T23:12:23.449Z,9.20
2018-03-08T23:14:51.969Z,9.87
2018-03-08T23:17:20.252Z,9.27
2018-03-08T23:19:48.542Z,10.00
2018-03-08T23:22:17.893Z,9.30
2018-03-08T23:24:46.229Z,11.30
2018-03-08T23:27:15.020Z,11.50
2018-03-08T23:29:43.324Z,12.77
2018-03-08T23:32:12.381Z,14.07
2018-03-08T23:34:40.968Z,15.30
2018-03-08T23:37:09.265Z,16.27
2018-03-08T23:39:37.660Z,14.67
2018-03-08T23:42:06.132Z,16.40
2018-03-08T23:44:34.406Z,16.63
2018-03-08T23:47:02.687Z,18.33
2018-03-08T23:49:31.058Z,17.00
2018-03-08T23:51:59.331Z,20.97
2018-03-08T23:54:27.603Z,20.57
2018-03-08T23:56:55.911Z,21.30
2018-03-08T23:59:24.916Z,20.13
